createdAt,value
2018-05-08T00:00:08.505Z,56.51
2018-05-08T00:01:12.827Z,56.83
2018-05-08T00:02:17.538Z,56.40
2018-05-08T00:03:22.597Z,56.51
2018-05-08T00:04:27.016Z,56.56
2018-05-08T00:05:31.174Z,56.84
2018-05-08T00:06:35.269Z,56.83
2018-05-08T00:07:39.364Z,56.88
2018-05-08T00:08:43.444Z,56.45
2018-05-08T00:09:47.756Z,56.29
2018-05-08T00:10:52.160Z,56.37
2018-05-08T00:11:56.242Z,56.48
2018-05-08T00:13:00.308Z,56.69
2018-05-08T00:14:04.422Z,57.00
2018-05-08T00:15:08.832Z,56.74
2018-05-08T00:16:12.938Z,56.85
2018-05-08T00:17:17.363Z,56.97
2018-05-08T00:18:21.464Z,57.05
2018-05-08T00:19:25.567Z,57.01
2018-05-08T00:20:30.517Z,57.33
2018-05-08T00:21:34.664Z,57.40
2018-05-08T00:22:38.726Z,56.99
2018-05-08T00:23:42.816Z,57.09
2018-05-08T00:24:46.935Z,57.43
2018-05-08T00:25:51.095Z,57.56
2018-05-08T00:26:55.476Z,57.26
2018-05-08T00:27:59.570Z,57.00
2018-05-08T00:29:03.987Z,56.86
2018-05-08T00:30:08.420Z,57.09
2018-05-08T00:31:12.490Z,57.31
2018-05-08T00:32:17.606Z,57.32
2018-05-08T00:33:21.677Z,57.27
2018-05-08T00:34:26.081Z,57.37
2018-05-08T00:35:30.145Z,57.36
2018-05-08T00:36:34.478Z,57.37
2018-05-08T00:37:38.648Z,57.52
2018-05-08T00:38:42.736Z,57.41
2018-05-08T00:39:46.844Z,57.92
2018-05-08T00:40:51.284Z,57.78
2018-05-08T00:41:55.359Z,57.78
2018-05-08T00:42:59.494Z,57.53
2018-05-08T00:44:03.606Z,57.51
2018-05-08T00:45:08.162Z,57.63
2018-05-08T00:46:12.537Z,57.73
2018-05-08T00:47:16.621Z,57.88
2018-05-08T00:48:20.770Z,58.06
2018-05-08T00:49:24.859Z,58.30
2018-05-08T00:50:29.015Z,58.55
2018-05-08T00:51:33.103Z,58.36
2018-05-08T00:52:37.253Z,58.42
2018-05-08T00:53:41.309Z,58.30
2018-05-08T00:54:55.204Z,58.13
2018-05-08T00:55:59.290Z,58.48
2018-05-08T00:57:03.678Z,58.57
2018-05-08T00:58:07.779Z,59.02
2018-05-08T00:59:11.916Z,59.18
2018-05-08T01:00:17.545Z,59.09
2018-05-08T01:01:22.547Z,59.21
2018-05-08T01:02:26.702Z,59.10
2018-05-08T01:03:31.593Z,58.80
2018-05-08T01:04:35.973Z,58.59
2018-05-08T01:05:40.051Z,58.70
2018-05-08T01:06:44.200Z,58.91
2018-05-08T01:07:48.271Z,58.96
2018-05-08T01:08:52.372Z,58.91
2018-05-08T01:09:57.850Z,58.90
2018-05-08T01:11:02.790Z,58.98
2018-05-08T01:12:06.938Z,58.76
2018-05-08T01:13:11.055Z,59.11
2018-05-08T01:14:16.089Z,59.31
2018-05-08T01:15:20.752Z,59.34
2018-05-08T01:16:24.906Z,59.14
2018-05-08T01:17:29.073Z,59.39
2018-05-08T01:18:33.145Z,59.25
2018-05-08T01:19:37.305Z,59.16
2018-05-08T01:20:41.386Z,59.19
2018-05-08T01:21:45.430Z,59.10
2018-05-08T01:22:49.867Z,59.30
2018-05-08T01:23:53.986Z,59.89
2018-05-08T01:24:58.097Z,59.83
2018-05-08T01:26:02.437Z,59.72
2018-05-08T01:27:06.514Z,59.99
2018-05-08T01:28:10.880Z,59.86
2018-05-08T01:29:15.489Z,59.75
2018-05-08T01:30:19.992Z,59.95
2018-05-08T01:31:24.072Z,59.91
2018-05-08T01:32:28.180Z,59.93
2018-05-08T01:33:32.927Z,60.29
2018-05-08T01:34:36.962Z,60.83
2018-05-08T01:35:41.419Z,61.14
2018-05-08T01:36:45.522Z,61.48
2018-05-08T01:37:49.720Z,61.87
2018-05-08T01:38:53.902Z,62.14
2018-05-08T01:39:58.047Z,62.60
2018-05-08T01:41:02.162Z,62.31
2018-05-08T01:42:06.650Z,62.35
2018-05-08T01:43:10.710Z,62.28
2018-05-08T01:44:14.939Z,62.10
2018-05-08T01:45:19.806Z,61.86
2018-05-08T01:46:24.528Z,61.57
2018-05-08T01:47:28.591Z,61.63
2018-05-08T01:48:33.030Z,61.54
2018-05-08T01:49:37.485Z,61.45
2018-05-08T01:50:41.563Z,61.67
2018-05-08T01:51:46.035Z,61.91
2018-05-08T01:52:50.416Z,61.75
2018-05-08T01:53:54.834Z,62.21
2018-05-08T01:54:59.230Z,62.33
2018-05-08T01:56:03.330Z,62.41
2018-05-08T01:57:07.372Z,62.36
2018-05-08T01:58:11.511Z,62.65
2018-05-08T01:59:15.578Z,62.56
2018-05-08T02:00:19.714Z,62.72
2018-05-08T02:01:23.928Z,62.75
2018-05-08T02:02:28.047Z,63.04
2018-05-08T02:03:32.102Z,62.77
2018-05-08T02:04:36.189Z,62.92
2018-05-08T02:05:40.234Z,63.04
2018-05-08T02:06:44.668Z,63.18
2018-05-08T02:07:48.829Z,63.27
2018-05-08T02:08:52.884Z,63.69
2018-05-08T02:09:57.031Z,63.79
2018-05-08T02:11:01.093Z,64.05
2018-05-08T02:12:05.174Z,64.01
2018-05-08T02:13:09.241Z,64.23
2018-05-08T02:14:13.321Z,64.48
2018-05-08T02:15:17.699Z,64.53
2018-05-08T02:16:21.802Z,64.58
2018-05-08T02:17:25.910Z,64.81
2018-05-08T02:18:30.060Z,64.85
2018-05-08T02:19:34.509Z,64.72
2018-05-08T02:20:38.672Z,64.72
2018-05-08T02:21:42.825Z,64.59
2018-05-08T02:22:46.891Z,64.66
2018-05-08T02:23:50.968Z,64.62
2018-05-08T02:24:55.427Z,64.85
2018-05-08T02:25:59.877Z,64.92
2018-05-08T02:27:04.191Z,64.99
2018-05-08T02:28:08.263Z,64.79
2018-05-08T02:30:23.249Z,64.11
2018-05-08T02:31:27.647Z,64.28
2018-05-08T02:32:31.787Z,64.47
2018-05-08T02:33:35.864Z,64.72
2018-05-08T02:34:40.033Z,64.85
2018-05-08T02:35:44.093Z,65.09
2018-05-08T02:36:48.259Z,65.22
2018-05-08T02:37:52.671Z,65.15
2018-05-08T02:38:56.755Z,65.04
2018-05-08T02:40:00.876Z,64.80
2018-05-08T02:41:05.043Z,64.60
2018-05-08T02:42:09.104Z,64.77
2018-05-08T02:43:13.262Z,64.82
2018-05-08T02:44:17.655Z,64.91
2018-05-08T02:45:21.891Z,65.00
2018-05-08T02:46:25.951Z,65.06
2018-05-08T02:47:30.113Z,64.91
2018-05-08T02:48:34.195Z,64.57
2018-05-08T02:49:38.674Z,64.21
2018-05-08T02:50:42.785Z,64.04
2018-05-08T02:51:46.854Z,64.20
2018-05-08T02:52:50.995Z,64.43
2018-05-08T02:53:55.175Z,64.42
2018-05-08T02:54:59.360Z,64.15
2018-05-08T02:56:03.819Z,64.18
2018-05-08T02:57:08.145Z,64.12
2018-05-08T02:58:12.229Z,64.04
2018-05-08T02:59:16.414Z,64.53
2018-05-08T03:00:20.791Z,64.74
2018-05-08T03:01:25.137Z,64.70
2018-05-08T03:02:30.026Z,64.77
2018-05-08T03:03:34.088Z,64.71
2018-05-08T03:04:38.251Z,64.90
2018-05-08T03:05:42.308Z,64.90
2018-05-08T03:06:46.355Z,64.74
2018-05-08T03:07:51.219Z,64.89
2018-05-08T03:08:55.725Z,65.14
2018-05-08T03:09:59.884Z,64.71
2018-05-08T03:11:03.944Z,65.08
2018-05-08T03:12:08.035Z,64.91
2018-05-08T03:13:12.103Z,65.42
2018-05-08T03:14:16.187Z,65.46
2018-05-08T03:15:21.209Z,65.32
2018-05-08T03:16:25.267Z,65.46
2018-05-08T03:17:30.088Z,65.44
2018-05-08T03:18:34.192Z,65.28
2018-05-08T03:19:38.242Z,65.14
2018-05-08T03:20:42.452Z,64.90
2018-05-08T03:21:46.835Z,64.80
2018-05-08T03:22:50.900Z,64.68
2018-05-08T03:23:55.046Z,64.92
2018-05-08T03:24:59.126Z,65.10
2018-05-08T03:26:03.308Z,65.61
2018-05-08T03:27:07.372Z,65.47
2018-05-08T03:28:11.758Z,65.84
2018-05-08T03:29:15.848Z,66.11
2018-05-08T03:30:20.348Z,66.12
2018-05-08T03:31:24.536Z,66.36
2018-05-08T03:32:28.613Z,66.11
2018-05-08T03:33:32.734Z,66.44
2018-05-08T03:34:37.219Z,66.54
2018-05-08T03:35:41.368Z,66.24
2018-05-08T03:36:45.430Z,66.28
2018-05-08T03:37:49.494Z,66.10
2018-05-08T03:38:53.679Z,66.35
2018-05-08T03:39:57.743Z,66.21
2018-05-08T03:41:02.121Z,66.55
2018-05-08T03:42:06.330Z,66.39
2018-05-08T03:43:10.502Z,65.94
2018-05-08T03:44:14.580Z,66.15
2018-05-08T03:45:19.122Z,66.20
2018-05-08T03:46:23.260Z,66.17
2018-05-08T03:47:27.653Z,66.03
2018-05-08T03:48:32.523Z,66.39
2018-05-08T03:49:36.591Z,66.42
2018-05-08T03:50:40.720Z,66.44
2018-05-08T03:51:44.796Z,66.45
2018-05-08T03:52:48.844Z,66.54
2018-05-08T03:53:53.217Z,66.63
2018-05-08T03:54:57.298Z,66.59
2018-05-08T03:56:01.517Z,66.88
2018-05-08T03:57:05.566Z,67.02
2018-05-08T03:58:09.633Z,67.24
2018-05-08T03:59:13.678Z,66.88
2018-05-08T04:00:26.614Z,66.90
2018-05-08T04:02:45.224Z,66.50
2018-05-08T04:04:00.272Z,65.72
2018-05-08T04:05:15.219Z,65.46
2018-05-08T04:06:19.832Z,65.37
2018-05-08T04:08:32.522Z,65.48
2018-05-08T04:09:37.054Z,65.08
2018-05-08T04:10:41.136Z,64.83
2018-05-08T04:11:45.234Z,64.83
2018-05-08T04:12:49.728Z,64.26
2018-05-08T04:13:53.913Z,63.92
2018-05-08T04:14:57.997Z,63.73
2018-05-08T04:16:02.366Z,63.78
2018-05-08T04:17:06.882Z,63.67
2018-05-08T04:18:10.971Z,63.30
2018-05-08T04:19:15.384Z,63.20
2018-05-08T04:20:19.506Z,62.78
2018-05-08T04:21:23.585Z,62.25
2018-05-08T04:22:27.764Z,62.14
2018-05-08T04:23:31.832Z,62.03
2018-05-08T04:24:35.896Z,62.13
2018-05-08T04:25:40.484Z,62.09
2018-05-08T04:26:44.656Z,61.94
2018-05-08T04:27:48.764Z,61.75
2018-05-08T04:28:52.837Z,61.56
2018-05-08T04:29:56.916Z,61.49
2018-05-08T04:31:02.570Z,61.43
2018-05-08T04:32:06.666Z,61.63
2018-05-08T04:33:10.728Z,61.77
2018-05-08T04:34:14.801Z,61.15
2018-05-08T04:35:18.878Z,60.97
2018-05-08T04:36:23.084Z,60.51
2018-05-08T04:37:27.464Z,59.95
2018-05-08T04:38:31.526Z,59.33
2018-05-08T04:39:35.609Z,59.03
2018-05-08T04:40:40.312Z,58.87
2018-05-08T04:41:44.406Z,58.43
2018-05-08T04:42:48.466Z,58.34
2018-05-08T04:43:52.605Z,58.28
2018-05-08T04:44:56.695Z,58.51
2018-05-08T04:46:01.646Z,58.15
2018-05-08T04:47:05.748Z,58.29
2018-05-08T04:48:09.861Z,58.28
2018-05-08T04:49:14.214Z,58.39
2018-05-08T04:50:18.306Z,58.44
2018-05-08T04:51:22.490Z,58.09
2018-05-08T04:52:26.570Z,57.89
2018-05-08T04:53:30.631Z,57.54
2018-05-08T04:54:34.748Z,57.26
2018-05-08T04:55:39.224Z,57.06
2018-05-08T04:56:44.134Z,56.86
2018-05-08T04:57:48.210Z,56.20
2018-05-08T04:58:52.376Z,56.31
2018-05-08T04:59:56.478Z,56.71
2018-05-08T05:01:01.205Z,56.54
2018-05-08T05:02:05.332Z,56.13
2018-05-08T05:03:09.504Z,56.01
2018-05-08T05:04:13.542Z,55.63
2018-05-08T05:05:17.632Z,55.36
2018-05-08T05:06:21.782Z,55.40
2018-05-08T05:07:26.215Z,54.75
2018-05-08T05:08:30.346Z,54.88
2018-05-08T05:09:34.473Z,54.80
2018-05-08T05:10:38.606Z,54.59
2018-05-08T05:11:42.690Z,54.77
2018-05-08T05:12:46.806Z,54.17
2018-05-08T05:13:51.521Z,53.32
2018-05-08T05:14:55.674Z,53.26
2018-05-08T05:15:59.961Z,52.87
2018-05-08T05:17:04.066Z,52.51
2018-05-08T05:18:08.177Z,52.40
2018-05-08T05:19:12.275Z,52.30
2018-05-08T05:20:16.719Z,52.28
2018-05-08T05:21:20.977Z,52.60
2018-05-08T05:22:25.140Z,52.73
2018-05-08T05:23:29.226Z,52.31
2018-05-08T05:24:34.338Z,52.68
2018-05-08T05:25:38.525Z,52.35
2018-05-08T05:26:42.652Z,52.10
2018-05-08T05:27:47.309Z,51.31
2018-05-08T05:28:51.366Z,51.01
2018-05-08T05:29:55.433Z,50.69
2018-05-08T05:31:00.091Z,50.50
2018-05-08T05:32:04.443Z,50.07
2018-05-08T05:33:08.980Z,49.74
2018-05-08T05:34:13.121Z,49.88
2018-05-08T05:35:17.197Z,49.62
2018-05-08T05:36:21.333Z,49.72
2018-05-08T05:37:25.419Z,49.69
2018-05-08T05:38:29.897Z,49.68
2018-05-08T05:39:34.037Z,49.28
2018-05-08T05:40:38.112Z,48.79
2018-05-08T05:41:42.859Z,48.20
2018-05-08T05:42:46.898Z,47.77
2018-05-08T05:43:51.072Z,47.84
2018-05-08T05:44:55.475Z,48.00
2018-05-08T05:45:59.679Z,48.09
2018-05-08T05:47:03.877Z,48.00
2018-05-08T05:48:08.179Z,47.93
2018-05-08T05:49:12.444Z,47.15
2018-05-08T05:50:16.535Z,47.31
2018-05-08T05:51:20.591Z,46.99
2018-05-08T05:52:24.691Z,47.12
2018-05-08T05:53:28.837Z,46.86
2018-05-08T05:54:32.960Z,47.06
2018-05-08T05:55:37.059Z,47.28
2018-05-08T05:56:41.423Z,47.60
2018-05-08T05:57:45.477Z,47.64
2018-05-08T05:58:49.528Z,47.72
2018-05-08T05:59:53.707Z,47.09
2018-05-08T06:00:58.047Z,46.91
2018-05-08T06:02:02.249Z,46.05
2018-05-08T06:03:06.323Z,45.64
2018-05-08T06:04:10.598Z,45.26
2018-05-08T06:05:14.963Z,45.02
2018-05-08T06:06:19.080Z,45.32
2018-05-08T06:07:23.177Z,45.52
2018-05-08T06:08:27.304Z,46.20
2018-05-08T06:09:31.367Z,45.81
2018-05-08T06:10:36.381Z,45.51
2018-05-08T06:11:40.492Z,45.19
2018-05-08T06:12:45.587Z,45.17
2018-05-08T06:13:49.739Z,45.72
2018-05-08T06:14:53.834Z,45.50
2018-05-08T06:15:58.038Z,44.55
2018-05-08T06:17:02.139Z,44.66
2018-05-08T06:18:06.575Z,43.86
2018-05-08T06:19:11.110Z,43.53
2018-05-08T06:20:15.605Z,43.59
2018-05-08T06:21:19.877Z,43.51
2018-05-08T06:22:23.955Z,43.35
2018-05-08T06:23:28.167Z,42.74
2018-05-08T06:24:32.571Z,42.77
2018-05-08T06:25:38.471Z,42.93
2018-05-08T06:26:42.589Z,43.07
2018-05-08T06:27:46.706Z,42.82
2018-05-08T06:28:50.873Z,43.29
2018-05-08T06:29:54.991Z,43.26
2018-05-08T06:30:59.745Z,43.22
2018-05-08T06:32:03.843Z,41.75
2018-05-08T06:33:07.962Z,41.63
2018-05-08T06:34:12.059Z,42.09
2018-05-08T06:35:16.142Z,41.85
2018-05-08T06:36:20.228Z,41.84
2018-05-08T06:37:24.426Z,42.21
2018-05-08T06:38:28.479Z,42.32
2018-05-08T06:39:32.849Z,42.15
2018-05-08T06:40:36.903Z,42.58
2018-05-08T06:41:41.098Z,43.36
2018-05-08T06:42:45.259Z,42.26
2018-05-08T06:43:49.651Z,41.57
2018-05-08T06:44:53.767Z,41.96
2018-05-08T06:45:58.235Z,42.22
2018-05-08T06:47:02.541Z,42.53
2018-05-08T06:48:06.623Z,42.42
2018-05-08T06:49:10.716Z,42.89
2018-05-08T06:50:15.080Z,43.21
2018-05-08T06:51:19.277Z,43.22
2018-05-08T06:52:23.409Z,42.78
2018-05-08T06:53:27.451Z,42.34
2018-05-08T06:54:31.651Z,42.42
2018-05-08T06:55:35.839Z,41.90
2018-05-08T06:56:41.171Z,41.58
2018-05-08T06:57:45.417Z,41.88
2018-05-08T06:58:49.595Z,41.82
2018-05-08T06:59:53.755Z,41.37
2018-05-08T07:00:58.137Z,41.67
2018-05-08T07:02:02.574Z,41.99
2018-05-08T07:03:06.671Z,41.93
2018-05-08T07:04:10.989Z,41.94
2018-05-08T07:05:15.226Z,40.93
2018-05-08T07:06:19.433Z,41.29
2018-05-08T07:07:23.696Z,41.47
2018-05-08T07:08:28.191Z,42.12
2018-05-08T07:09:32.562Z,41.88
2018-05-08T07:10:36.757Z,40.94
2018-05-08T07:11:41.554Z,39.83
2018-05-08T07:12:46.598Z,39.84
2018-05-08T07:13:50.738Z,39.26
2018-05-08T07:14:55.263Z,39.04
2018-05-08T07:16:00.125Z,38.45
2018-05-08T07:17:04.741Z,38.42
2018-05-08T07:18:09.337Z,38.00
2018-05-08T07:19:13.465Z,38.28
2018-05-08T07:20:17.635Z,38.69
2018-05-08T07:21:22.148Z,38.57
2018-05-08T07:22:26.494Z,39.03
2018-05-08T07:23:30.703Z,39.10
2018-05-08T07:24:34.906Z,39.23
2018-05-08T07:25:39.239Z,39.10
2018-05-08T07:26:43.518Z,39.37
2018-05-08T07:27:47.807Z,38.93
2018-05-08T07:28:52.622Z,38.79
2018-05-08T07:29:56.822Z,39.17
2018-05-08T07:31:01.604Z,38.84
2018-05-08T07:32:05.876Z,39.48
2018-05-08T07:33:10.186Z,39.22
2018-05-08T07:34:14.586Z,38.61
2018-05-08T07:35:18.661Z,38.09
2018-05-08T07:36:22.821Z,37.83
2018-05-08T07:37:26.896Z,37.78
2018-05-08T07:38:30.965Z,37.76
2018-05-08T07:39:35.128Z,37.76
2018-05-08T07:40:39.489Z,37.78
2018-05-08T07:41:43.651Z,37.74
2018-05-08T07:42:47.795Z,37.39
2018-05-08T07:43:51.924Z,37.52
2018-05-08T07:44:56.063Z,36.71
2018-05-08T07:46:00.142Z,36.86
2018-05-08T07:47:04.495Z,37.33
2018-05-08T07:48:08.617Z,37.38
2018-05-08T07:49:12.740Z,36.92
2018-05-08T07:50:16.827Z,36.75
2018-05-08T07:51:20.899Z,36.92
2018-05-08T07:52:25.085Z,35.44
2018-05-08T07:53:29.307Z,35.21
2018-05-08T07:54:33.492Z,35.35
2018-05-08T07:55:37.583Z,35.67
2018-05-08T07:56:41.686Z,34.90
2018-05-08T07:57:45.805Z,35.18
2018-05-08T07:58:50.430Z,35.12
2018-05-08T07:59:55.069Z,34.86
2018-05-08T08:00:59.954Z,35.85
2018-05-08T08:02:04.015Z,35.68
2018-05-08T08:03:08.096Z,34.81
2018-05-08T08:04:12.270Z,35.77
2018-05-08T08:05:16.649Z,36.10
2018-05-08T08:06:20.800Z,35.34
2018-05-08T08:07:24.965Z,35.04
2018-05-08T08:08:28.988Z,34.36
2018-05-08T08:09:33.182Z,34.96
2018-05-08T08:10:37.260Z,35.36
2018-05-08T08:11:41.728Z,34.67
2018-05-08T08:12:45.977Z,34.40
2018-05-08T08:13:50.068Z,34.42
2018-05-08T08:14:54.238Z,33.94
2018-05-08T08:15:59.587Z,34.16
2018-05-08T08:17:03.660Z,34.03
2018-05-08T08:18:07.737Z,33.17
2018-05-08T08:19:11.933Z,33.30
2018-05-08T08:20:16.043Z,33.23
2018-05-08T08:21:20.205Z,32.34
2018-05-08T08:22:24.284Z,32.41
2018-05-08T08:23:28.442Z,32.84
2018-05-08T08:24:32.913Z,32.83
2018-05-08T08:25:37.017Z,32.95
2018-05-08T08:26:41.097Z,33.06
2018-05-08T08:27:45.270Z,33.13
2018-05-08T08:28:49.568Z,33.23
2018-05-08T08:29:53.638Z,33.13
2018-05-08T08:30:58.571Z,32.96
2018-05-08T08:32:03.105Z,33.10
2018-05-08T08:33:07.195Z,32.94
2018-05-08T08:34:11.355Z,33.36
2018-05-08T08:35:15.429Z,33.61
2018-05-08T08:36:19.523Z,33.65
2018-05-08T08:37:23.946Z,33.73
2018-05-08T08:38:28.127Z,33.95
2018-05-08T08:39:32.251Z,33.51
2018-05-08T08:40:36.339Z,33.53
2018-05-08T08:41:40.418Z,34.06
2018-05-08T08:42:44.619Z,33.87
2018-05-08T08:43:48.829Z,33.64
2018-05-08T08:44:52.925Z,33.87
2018-05-08T08:45:57.614Z,33.83
2018-05-08T08:47:03.045Z,33.45
2018-05-08T08:48:07.639Z,32.65
2018-05-08T08:49:12.163Z,33.65
2018-05-08T08:50:16.519Z,32.90
2018-05-08T08:51:20.955Z,32.70
2018-05-08T08:52:25.514Z,32.87
2018-05-08T08:53:30.043Z,32.50
2018-05-08T08:54:34.568Z,32.92
2018-05-08T08:55:39.035Z,32.31
2018-05-08T08:56:43.090Z,32.63
2018-05-08T08:57:47.377Z,33.20
2018-05-08T08:58:51.561Z,32.45
2018-05-08T08:59:56.048Z,32.45
2018-05-08T09:01:00.482Z,31.18
2018-05-08T09:02:04.543Z,31.23
2018-05-08T09:03:08.672Z,31.18
2018-05-08T09:04:12.715Z,30.13
2018-05-08T09:05:16.779Z,30.73
2018-05-08T09:06:20.883Z,31.02
2018-05-08T09:07:25.058Z,30.45
2018-05-08T09:08:29.122Z,30.29
2018-05-08T09:09:33.193Z,29.75
2018-05-08T09:10:37.447Z,30.30
2018-05-08T09:11:41.835Z,29.69
2018-05-08T09:12:45.972Z,29.97
2018-05-08T09:13:50.264Z,28.71
2018-05-08T09:14:54.655Z,29.30
2018-05-08T09:15:59.240Z,29.72
2018-05-08T09:17:03.615Z,30.50
2018-05-08T09:18:08.101Z,30.86
2018-05-08T09:19:12.259Z,30.28
2018-05-08T09:20:16.328Z,30.58
2018-05-08T09:21:20.502Z,30.49
2018-05-08T09:22:24.706Z,30.25
2018-05-08T09:23:29.137Z,30.09
2018-05-08T09:24:33.231Z,30.16
2018-05-08T09:25:37.332Z,29.57
2018-05-08T09:26:41.516Z,29.89
2018-05-08T09:27:45.637Z,30.28
2018-05-08T09:28:49.931Z,30.62
2018-05-08T09:29:54.330Z,30.96
2018-05-08T09:30:59.982Z,31.20
2018-05-08T09:32:04.204Z,30.75
2018-05-08T09:33:08.310Z,29.96
2018-05-08T09:34:12.966Z,28.97
2018-05-08T09:35:17.036Z,29.19
2018-05-08T09:36:21.406Z,29.83
2018-05-08T09:37:25.463Z,29.97
2018-05-08T09:38:29.594Z,30.39
2018-05-08T09:39:33.698Z,29.79
2018-05-08T09:40:37.738Z,29.91
2018-05-08T09:41:41.888Z,30.20
2018-05-08T09:42:46.344Z,30.43
2018-05-08T09:43:50.474Z,30.37
2018-05-08T09:44:54.863Z,30.18
2018-05-08T09:45:59.601Z,30.29
2018-05-08T09:47:04.050Z,30.10
2018-05-08T09:48:08.430Z,30.07
2018-05-08T09:49:13.141Z,30.17
2018-05-08T09:50:17.144Z,29.10
2018-05-08T09:51:21.313Z,28.92
2018-05-08T09:52:25.386Z,28.88
2018-05-08T09:53:29.520Z,29.21
2018-05-08T09:54:33.644Z,28.63
2018-05-08T09:55:38.032Z,28.71
2018-05-08T09:56:42.106Z,28.34
2018-05-08T09:57:46.220Z,28.06
2018-05-08T09:58:50.480Z,28.78
2018-05-08T09:59:54.653Z,28.75
2018-05-08T10:00:59.052Z,28.48
2018-05-08T10:02:04.442Z,29.04
2018-05-08T10:03:08.657Z,28.94
2018-05-08T10:04:12.717Z,28.98
2018-05-08T10:05:16.888Z,27.75
2018-05-08T10:06:20.989Z,28.06
2018-05-08T10:07:25.067Z,27.52
2018-05-08T10:08:29.468Z,28.29
2018-05-08T10:09:33.614Z,28.01
2018-05-08T10:10:37.688Z,27.49
2018-05-08T10:11:41.732Z,27.50
2018-05-08T10:12:45.819Z,27.56
2018-05-08T10:13:50.091Z,27.52
2018-05-08T10:14:54.287Z,27.42
2018-05-08T10:15:58.661Z,27.66
2018-05-08T10:17:03.381Z,27.21
2018-05-08T10:18:07.820Z,27.43
2018-05-08T10:19:11.956Z,27.42
2018-05-08T10:20:16.062Z,26.64
2018-05-08T10:21:20.241Z,27.36
2018-05-08T10:22:24.324Z,27.15
2018-05-08T10:23:28.554Z,26.67
2018-05-08T10:24:32.635Z,27.07
2018-05-08T10:25:36.801Z,27.14
2018-05-08T10:26:40.879Z,26.61
2018-05-08T10:27:44.976Z,26.19
2018-05-08T10:28:49.244Z,26.73
2018-05-08T10:29:53.379Z,27.49
2018-05-08T10:30:57.772Z,27.91
2018-05-08T10:32:01.846Z,28.17
2018-05-08T10:33:06.918Z,27.98
2018-05-08T10:34:12.450Z,27.35
2018-05-08T10:35:16.519Z,27.47
2018-05-08T10:36:20.622Z,26.78
2018-05-08T10:37:25.064Z,26.39
2018-05-08T10:38:29.120Z,26.17
2018-05-08T10:39:33.198Z,25.47
2018-05-08T10:40:37.321Z,25.31
2018-05-08T10:41:41.425Z,25.41
2018-05-08T10:42:45.519Z,25.89
2018-05-08T10:43:50.046Z,25.80
2018-05-08T10:44:54.153Z,26.02
2018-05-08T10:45:59.080Z,26.41
2018-05-08T10:47:03.578Z,25.02
2018-05-08T10:48:07.663Z,24.32
2018-05-08T10:49:11.854Z,24.51
2018-05-08T10:50:16.219Z,25.51
2018-05-08T10:51:20.365Z,25.94
2018-05-08T10:52:24.477Z,25.39
2018-05-08T10:53:28.544Z,24.15
2018-05-08T10:54:32.614Z,24.42
2018-05-08T10:55:37.029Z,25.09
2018-05-08T10:56:41.134Z,25.41
2018-05-08T10:57:45.226Z,24.93
2018-05-08T10:58:49.319Z,24.71
2018-05-08T10:59:53.520Z,24.59
2018-05-08T11:00:57.703Z,24.69
2018-05-08T11:02:02.578Z,24.20
2018-05-08T11:03:07.548Z,24.72
2018-05-08T11:04:11.640Z,24.59
2018-05-08T11:05:15.726Z,24.73
2018-05-08T11:06:19.959Z,25.21
2018-05-08T11:07:24.053Z,25.45
2018-05-08T11:08:28.448Z,24.98
2018-05-08T11:09:32.552Z,25.29
2018-05-08T11:10:36.609Z,25.64
2018-05-08T11:11:40.757Z,26.21
2018-05-08T11:12:44.833Z,25.22
2018-05-08T11:13:48.952Z,25.56
2018-05-08T11:14:53.045Z,25.12
2018-05-08T11:15:57.121Z,24.06
2018-05-08T11:17:01.624Z,24.27
2018-05-08T11:18:05.699Z,24.80
2018-05-08T11:19:09.873Z,24.29
2018-05-08T11:20:13.959Z,24.33
2018-05-08T11:21:18.451Z,23.69
2018-05-08T11:22:22.537Z,24.09
2018-05-08T11:23:26.608Z,24.20
2018-05-08T11:24:30.710Z,24.29
2018-05-08T11:25:34.848Z,24.58
2018-05-08T11:26:39.105Z,23.92
2018-05-08T11:27:43.456Z,24.78
2018-05-08T11:28:47.620Z,24.24
2018-05-08T11:29:51.703Z,24.48
2018-05-08T11:30:56.296Z,24.55
2018-05-08T11:32:00.778Z,24.91
2018-05-08T11:33:05.483Z,24.54
2018-05-08T11:34:09.832Z,25.21
2018-05-08T11:35:13.907Z,26.40
2018-05-08T11:36:18.055Z,26.40
2018-05-08T11:37:22.117Z,25.74
2018-05-08T11:38:26.195Z,25.38
2018-05-08T11:39:30.351Z,25.08
2018-05-08T11:40:34.738Z,25.04
2018-05-08T11:41:38.905Z,24.10
2018-05-08T11:42:43.010Z,25.31
2018-05-08T11:43:47.225Z,25.91
2018-05-08T11:44:51.282Z,26.05
2018-05-08T11:45:55.778Z,26.02
2018-05-08T11:47:00.228Z,25.06
2018-05-08T11:48:04.774Z,24.54
2018-05-08T11:49:09.166Z,23.93
2018-05-08T11:50:13.399Z,23.71
2018-05-08T11:51:17.502Z,24.15
2018-05-08T11:52:21.581Z,24.36
2018-05-08T11:53:26.042Z,25.10
2018-05-08T11:54:30.128Z,24.32
2018-05-08T11:55:34.358Z,24.56
2018-05-08T11:56:38.467Z,23.92
2018-05-08T11:57:42.745Z,23.72
2018-05-08T11:58:46.931Z,24.28
2018-05-08T11:59:51.056Z,23.14
2018-05-08T12:00:55.257Z,23.07
2018-05-08T12:01:59.412Z,23.71
2018-05-08T12:03:03.557Z,23.95
2018-05-08T12:04:07.666Z,24.70
2018-05-08T12:05:11.753Z,24.80
2018-05-08T12:06:16.158Z,24.45
2018-05-08T12:07:20.238Z,24.79
2018-05-08T12:08:25.361Z,24.00
2018-05-08T12:09:29.430Z,23.63
2018-05-08T12:10:33.592Z,23.80
2018-05-08T12:11:37.692Z,24.14
2018-05-08T12:12:42.118Z,23.72
2018-05-08T12:13:46.314Z,23.60
2018-05-08T12:14:50.546Z,24.32
2018-05-08T12:15:54.921Z,24.13
2018-05-08T12:16:59.376Z,24.40
2018-05-08T12:18:04.024Z,24.67
2018-05-08T12:19:08.438Z,25.11
2018-05-08T12:20:12.564Z,25.18
2018-05-08T12:21:16.826Z,23.97
2018-05-08T12:22:20.938Z,23.65
2018-05-08T12:23:25.010Z,23.32
2018-05-08T12:24:29.120Z,23.09
2018-05-08T12:25:33.394Z,23.83
2018-05-08T12:26:37.430Z,25.16
2018-05-08T12:27:41.626Z,24.21
2018-05-08T12:28:45.748Z,25.03
2018-05-08T12:29:49.960Z,25.32
2018-05-08T12:30:54.328Z,24.46
2018-05-08T12:31:58.397Z,24.44
2018-05-08T12:33:02.508Z,24.11
2018-05-08T12:34:06.684Z,23.82
2018-05-08T12:35:10.770Z,22.86
2018-05-08T12:36:14.894Z,24.23
2018-05-08T12:37:19.002Z,24.44
2018-05-08T12:38:23.135Z,23.66
2018-05-08T12:39:28.299Z,23.79
2018-05-08T12:40:32.430Z,24.22
2018-05-08T12:41:36.827Z,24.31
2018-05-08T12:42:40.954Z,23.64
2018-05-08T12:43:45.040Z,23.83
2018-05-08T12:44:49.264Z,24.35
2018-05-08T12:45:53.367Z,25.30
2018-05-08T12:46:57.618Z,24.85
2018-05-08T12:48:02.104Z,24.17
2018-05-08T12:49:06.308Z,23.27
2018-05-08T12:50:10.425Z,23.59
2018-05-08T12:51:14.512Z,23.48
2018-05-08T12:52:18.671Z,22.59
2018-05-08T12:53:22.758Z,22.76
2018-05-08T12:54:27.182Z,21.75
2018-05-08T12:55:31.874Z,22.25
2018-05-08T12:56:36.029Z,22.76
2018-05-08T12:57:40.133Z,23.30
2018-05-08T12:58:44.237Z,23.36
2018-05-08T12:59:48.354Z,22.94
2018-05-08T13:00:52.650Z,23.70
2018-05-08T13:01:56.752Z,23.99
2018-05-08T13:03:01.209Z,22.96
2018-05-08T13:04:05.307Z,22.98
2018-05-08T13:05:09.379Z,23.50
2018-05-08T13:06:13.447Z,23.71
2018-05-08T13:07:17.925Z,22.96
2018-05-08T13:08:22.088Z,23.33
2018-05-08T13:09:26.170Z,22.11
2018-05-08T13:10:30.255Z,23.22
2018-05-08T13:11:35.045Z,23.65
2018-05-08T13:12:39.197Z,23.19
2018-05-08T13:13:43.625Z,23.52
2018-05-08T13:14:47.723Z,24.17
2018-05-08T13:15:52.079Z,23.17
2018-05-08T13:16:56.185Z,22.87
2018-05-08T13:18:00.397Z,23.14
2018-05-08T13:19:05.033Z,22.44
2018-05-08T13:20:09.228Z,22.00
2018-05-08T13:21:13.321Z,21.93
2018-05-08T13:22:17.379Z,20.80
2018-05-08T13:23:21.573Z,21.76
2018-05-08T13:24:26.280Z,20.88
2018-05-08T13:25:30.639Z,20.02
2018-05-08T13:26:34.801Z,20.24
2018-05-08T13:27:38.907Z,20.44
2018-05-08T13:28:42.963Z,21.74
2018-05-08T13:29:47.067Z,22.14
2018-05-08T13:30:51.679Z,22.22
2018-05-08T13:31:55.793Z,21.41
2018-05-08T13:32:59.880Z,20.97
2018-05-08T13:34:03.967Z,20.70
2018-05-08T13:35:08.151Z,19.67
2018-05-08T13:36:12.398Z,19.82
2018-05-08T13:37:16.901Z,20.00
2018-05-08T13:38:20.991Z,19.62
2018-05-08T13:39:25.059Z,20.08
2018-05-08T13:40:30.034Z,20.09
2018-05-08T13:41:34.269Z,19.96
2018-05-08T13:42:38.366Z,20.46
2018-05-08T13:43:42.485Z,20.69
2018-05-08T13:44:46.546Z,20.44
2018-05-08T13:45:50.712Z,21.12
2018-05-08T13:46:54.836Z,20.97
2018-05-08T13:47:59.049Z,19.85
2018-05-08T13:49:03.484Z,19.76
2018-05-08T13:50:07.579Z,20.41
2018-05-08T13:51:11.720Z,19.70